createdAt,value
2023-02-18T00:01:25.908Z,120.70
2023-02-18T00:03:54.010Z,111.23
2023-02-18T00:06:24.215Z,123.77
2023-02-18T00:08:51.851Z,119.27
2023-02-18T00:11:20.347Z,115.97
2023-02-18T00:14:14.738Z,117.37
2023-02-18T00:16:42.711Z,120.07
2023-02-18T00:19:12.241Z,124.03
2023-02-18T00:21:40.246Z,117.73
2023-02-18T00:24:08.928Z,112.07
2023-02-18T00:26:36.927Z,108.93
2023-02-18T00:29:04.712Z,112.37
2023-02-18T00:31:34.327Z,117.57
2023-02-18T00:34:03.096Z,111.47
2023-02-18T00:36:30.777Z,114.43
2023-02-18T00:38:59.875Z,118.50
2023-02-18T00:41:28.233Z,123.73
2023-02-18T00:43:56.202Z,127.20
2023-02-18T00:46:24.915Z,116.93
2023-02-18T00:48:52.387Z,116.20
2023-02-18T00:51:20.403Z,127.17
2023-02-18T00:53:48.376Z,111.37
2023-02-18T00:56:16.201Z,109.77
2023-02-18T00:58:44.690Z,113.43
2023-02-18T01:01:11.436Z,119.27
2023-02-18T01:03:40.202Z,111.33
2023-02-18T01:06:08.122Z,100.03
2023-02-18T01:08:36.352Z,105.13
2023-02-18T01:11:04.304Z,103.27
2023-02-18T01:13:31.444Z,99.87
2023-02-18T01:15:59.562Z,95.57
2023-02-18T01:18:26.971Z,101.50
2023-02-18T01:20:54.420Z,108.90
2023-02-18T01:23:22.464Z,113.00
2023-02-18T01:25:50.542Z,117.90
2023-02-18T01:28:18.869Z,107.40
2023-02-18T01:30:46.939Z,105.73
2023-02-18T01:33:15.189Z,94.23
2023-02-18T01:35:42.363Z,84.97
2023-02-18T01:38:10.462Z,86.73
2023-02-18T01:40:44.485Z,84.47
2023-02-18T01:43:13.198Z,84.97
2023-02-18T01:45:57.237Z,87.93
2023-02-18T01:48:48.831Z,101.57
2023-02-18T01:51:20.771Z,106.37
2023-02-18T01:53:50.070Z,128.03
2023-02-18T01:56:23.080Z,135.63
2023-02-18T01:58:50.739Z,126.80
2023-02-18T02:01:18.813Z,113.13
2023-02-18T02:03:46.758Z,124.37
2023-02-18T02:06:18.161Z,140.73
2023-02-18T02:08:45.488Z,189.03
2023-02-18T02:11:36.056Z,158.47
2023-02-18T02:14:16.834Z,161.40
2023-02-18T02:17:06.057Z,142.87
2023-02-18T02:19:55.256Z,151.60
2023-02-18T02:22:55.194Z,172.67
2023-02-18T02:25:21.773Z,167.70
2023-02-18T02:30:48.374Z,136.30
2023-02-18T02:33:52.491Z,146.70
2023-02-18T02:36:43.851Z,122.17
2023-02-18T02:39:29.449Z,144.77
2023-02-18T02:42:14.535Z,141.27
2023-02-18T02:45:18.453Z,185.10
2023-02-18T02:48:03.159Z,121.60
2023-02-18T02:50:36.628Z,128.00
2023-02-18T02:53:08.343Z,117.77
2023-02-18T02:55:36.312Z,162.13
2023-02-18T02:58:04.207Z,212.80
2023-02-18T03:01:08.893Z,146.97
2023-02-18T03:04:04.753Z,141.67
2023-02-18T03:07:02.773Z,162.73
2023-02-18T03:09:29.973Z,109.85
2023-02-18T03:12:08.520Z,136.53
2023-02-18T03:15:17.475Z,116.63
2023-02-18T03:18:37.452Z,118.57
2023-02-18T03:21:28.695Z,118.33
2023-02-18T03:23:59.676Z,119.07
2023-02-18T03:26:26.850Z,103.63
2023-02-18T03:28:53.980Z,101.77
2023-02-18T03:31:23.946Z,127.53
2023-02-18T03:33:57.118Z,90.13
2023-02-18T03:36:24.243Z,126.80
2023-02-18T03:39:12.297Z,133.03
2023-02-18T03:41:39.969Z,131.20
2023-02-18T03:44:09.303Z,172.20
2023-02-18T03:46:37.895Z,136.93
2023-02-18T03:49:06.171Z,141.23
2023-02-18T03:51:34.298Z,120.50
2023-02-18T03:54:02.288Z,141.17
2023-02-18T03:56:29.917Z,119.23
2023-02-18T03:58:57.934Z,152.63
2023-02-18T04:01:25.430Z,132.27
2023-02-18T04:03:55.223Z,146.93
2023-02-18T04:06:43.993Z,129.30
2023-02-18T04:09:11.974Z,124.97
2023-02-18T04:11:40.339Z,105.20
2023-02-18T04:14:07.512Z,135.43
2023-02-18T04:16:35.541Z,177.30
2023-02-18T04:19:03.546Z,134.93
2023-02-18T04:21:31.489Z,182.03
2023-02-18T04:23:59.763Z,162.23
2023-02-18T04:26:27.441Z,151.27
2023-02-18T04:28:55.422Z,168.23
2023-02-18T04:31:23.434Z,186.97
2023-02-18T04:33:51.402Z,120.37
2023-02-18T04:36:19.427Z,127.07
2023-02-18T04:38:47.371Z,131.77
2023-02-18T04:41:15.394Z,168.20
2023-02-18T04:43:43.473Z,115.70
2023-02-18T04:46:12.016Z,128.83
2023-02-18T04:48:40.009Z,155.23
2023-02-18T04:51:07.945Z,159.57
2023-02-18T04:53:35.889Z,183.80
2023-02-18T04:56:05.079Z,173.87
2023-02-18T04:58:32.979Z,137.37
2023-02-18T05:01:01.588Z,169.33
2023-02-18T05:03:29.692Z,153.10
2023-02-18T05:05:58.303Z,153.33
2023-02-18T05:08:25.889Z,144.60
2023-02-18T05:10:53.938Z,203.93
2023-02-18T05:13:22.945Z,160.53
2023-02-18T05:15:50.792Z,153.57
2023-02-18T05:18:18.371Z,143.30
2023-02-18T05:20:45.890Z,194.13
2023-02-18T05:23:14.838Z,138.63
2023-02-18T05:25:42.365Z,141.37
2023-02-18T05:28:10.014Z,138.33
2023-02-18T05:30:37.675Z,146.73
2023-02-18T05:33:05.615Z,124.43
2023-02-18T05:35:33.189Z,143.30
2023-02-18T05:38:01.244Z,201.03
2023-02-18T05:40:29.339Z,169.37
2023-02-18T05:42:57.348Z,184.10
2023-02-18T05:45:25.271Z,188.67
2023-02-18T05:47:53.181Z,157.10
2023-02-18T05:50:21.877Z,159.27
2023-02-18T05:52:50.459Z,164.17
2023-02-18T05:55:18.674Z,191.77
2023-02-18T05:57:46.202Z,141.80
2023-02-18T06:00:15.743Z,154.93
2023-02-18T06:02:44.242Z,176.47
2023-02-18T06:05:12.387Z,130.23
2023-02-18T06:07:39.843Z,165.80
2023-02-18T06:10:10.071Z,195.10
2023-02-18T06:12:37.915Z,173.53
2023-02-18T06:15:07.158Z,215.83
2023-02-18T06:17:35.159Z,142.93
2023-02-18T06:20:02.910Z,142.07
2023-02-18T06:22:30.979Z,115.17
2023-02-18T06:24:58.956Z,157.50
2023-02-18T06:27:26.614Z,129.80
2023-02-18T06:29:54.262Z,135.43
2023-02-18T06:32:22.707Z,148.03
2023-02-18T06:34:50.803Z,157.37
2023-02-18T06:37:18.851Z,149.43
2023-02-18T06:39:46.375Z,148.30
2023-02-18T06:42:14.376Z,136.20
2023-02-18T06:44:42.148Z,164.87
2023-02-18T06:47:10.093Z,151.23
2023-02-18T06:49:39.034Z,150.27
2023-02-18T06:54:48.157Z,181.37
2023-02-18T06:57:16.159Z,170.07
2023-02-18T06:59:45.531Z,173.63
2023-02-18T07:02:16.148Z,143.30
2023-02-18T07:04:45.663Z,156.73
2023-02-18T07:07:13.265Z,166.73
2023-02-18T07:09:41.269Z,139.33
2023-02-18T07:12:09.431Z,178.87
2023-02-18T07:14:37.515Z,180.47
2023-02-18T07:17:05.500Z,192.63
2023-02-18T07:19:33.538Z,157.00
2023-02-18T07:22:01.604Z,165.23
2023-02-18T07:24:29.532Z,162.03
2023-02-18T07:26:57.204Z,169.77
2023-02-18T07:29:25.193Z,154.60
2023-02-18T07:31:52.866Z,179.07
2023-02-18T07:34:20.534Z,194.33
2023-02-18T07:36:51.932Z,135.33
2023-02-18T07:39:20.885Z,156.93
2023-02-18T07:41:49.372Z,196.77
2023-02-18T07:44:17.715Z,172.47
2023-02-18T07:46:47.366Z,157.10
2023-02-18T07:49:16.351Z,163.83
2023-02-18T07:51:44.780Z,161.53
2023-02-18T07:54:13.411Z,163.00
2023-02-18T07:56:43.110Z,168.77
2023-02-18T07:59:11.729Z,151.70
2023-02-18T08:01:40.083Z,149.00
2023-02-18T08:04:08.006Z,173.37
2023-02-18T08:06:40.510Z,175.50
2023-02-18T08:09:07.726Z,172.50
2023-02-18T08:11:39.258Z,144.03
2023-02-18T08:14:07.296Z,147.87
2023-02-18T08:16:34.938Z,137.20
2023-02-18T08:19:03.600Z,141.87
2023-02-18T08:21:31.022Z,135.27
2023-02-18T08:24:00.579Z,142.47
2023-02-18T08:26:28.010Z,143.13
2023-02-18T08:28:56.211Z,119.93
2023-02-18T08:31:27.112Z,117.50
2023-02-18T08:33:55.130Z,137.30
2023-02-18T08:36:22.739Z,122.57
2023-02-18T08:38:50.824Z,129.47
2023-02-18T08:41:19.158Z,120.30
2023-02-18T08:43:46.612Z,124.90
2023-02-18T08:46:15.851Z,128.63
2023-02-18T08:48:44.677Z,117.93
2023-02-18T08:51:22.747Z,119.27
2023-02-18T08:53:50.578Z,122.53
2023-02-18T08:56:18.135Z,133.30
2023-02-18T08:58:45.705Z,124.80
2023-02-18T09:01:13.696Z,119.03
2023-02-18T09:03:41.421Z,122.17
2023-02-18T09:06:09.518Z,118.30
2023-02-18T09:08:37.578Z,127.03
2023-02-18T09:11:05.944Z,113.70
2023-02-18T09:13:34.647Z,124.00
2023-02-18T09:16:04.637Z,118.47
2023-02-18T09:18:32.579Z,119.77
2023-02-18T09:21:01.304Z,129.53
2023-02-18T09:23:29.862Z,114.07
2023-02-18T09:25:58.009Z,115.73
2023-02-18T09:28:25.629Z,115.67
2023-02-18T09:30:53.692Z,118.53
2023-02-18T09:33:21.889Z,113.67
2023-02-18T09:35:50.460Z,121.57
2023-02-18T09:38:18.755Z,112.17
2023-02-18T09:40:52.269Z,114.67
2023-02-18T09:43:43.516Z,118.33
2023-02-18T09:46:19.994Z,121.03
2023-02-18T09:48:47.622Z,115.28
2023-02-18T09:51:15.883Z,114.87
2023-02-18T09:53:45.315Z,116.40
2023-02-18T09:56:21.506Z,110.43
2023-02-18T09:58:49.584Z,116.55
2023-02-18T10:01:37.768Z,116.80
2023-02-18T10:04:14.094Z,114.80
2023-02-18T10:07:21.102Z,114.30
2023-02-18T10:09:47.993Z,125.87
2023-02-18T10:12:18.381Z,115.40
2023-02-18T10:14:49.971Z,121.17
2023-02-18T10:17:16.852Z,117.77
2023-02-18T10:19:44.105Z,121.70
2023-02-18T10:22:14.056Z,119.97
2023-02-18T10:24:44.915Z,119.00
2023-02-18T10:27:12.635Z,118.90
2023-02-18T10:29:40.648Z,122.33
2023-02-18T10:32:27.712Z,126.43
2023-02-18T10:35:03.260Z,111.30
2023-02-18T10:37:52.777Z,110.63
2023-02-18T10:40:25.828Z,116.80
2023-02-18T10:43:10.487Z,116.93
2023-02-18T10:45:46.438Z,107.97
2023-02-18T10:48:50.687Z,115.50
2023-02-18T10:51:22.705Z,113.83
2023-02-18T10:53:51.906Z,115.50
2023-02-18T10:56:42.983Z,113.57
2023-02-18T10:59:22.418Z,113.83
2023-02-18T11:02:12.509Z,119.77
2023-02-18T11:04:40.980Z,120.93
2023-02-18T11:07:26.203Z,115.33
2023-02-18T11:09:57.033Z,112.37
2023-02-18T11:12:25.199Z,112.27
2023-02-18T11:15:10.789Z,116.60
2023-02-18T11:17:41.982Z,106.10
2023-02-18T11:20:23.252Z,116.37
2023-02-18T11:22:50.722Z,104.77
2023-02-18T11:25:23.592Z,111.50
2023-02-18T11:27:53.130Z,114.67
2023-02-18T11:30:33.600Z,111.63
2023-02-18T11:33:03.754Z,106.87
2023-02-18T11:35:32.533Z,112.53
2023-02-18T11:38:00.104Z,111.03
2023-02-18T11:40:33.885Z,106.90
2023-02-18T11:43:12.472Z,110.73
2023-02-18T11:45:46.312Z,110.23
2023-02-18T11:48:18.652Z,112.27
2023-02-18T11:50:52.234Z,112.80
2023-02-18T11:53:30.101Z,106.13
2023-02-18T11:55:58.932Z,109.97
2023-02-18T11:58:26.741Z,116.93
2023-02-18T12:00:57.228Z,111.13
2023-02-18T12:03:42.826Z,120.93
2023-02-18T12:06:21.316Z,119.77
2023-02-18T12:09:00.380Z,121.30
2023-02-18T12:11:30.901Z,111.87
2023-02-18T12:13:58.503Z,118.90
2023-02-18T12:16:52.699Z,118.13
2023-02-18T12:19:23.038Z,108.77
2023-02-18T12:22:01.011Z,110.83
2023-02-18T12:24:40.327Z,110.47
2023-02-18T12:27:30.385Z,109.80
2023-02-18T12:30:16.979Z,110.17
2023-02-18T12:32:53.031Z,100.60
2023-02-18T12:36:01.795Z,99.97
2023-02-18T12:39:00.444Z,102.97
2023-02-18T12:41:37.587Z,106.73
2023-02-18T12:44:10.872Z,110.33
2023-02-18T12:46:50.022Z,109.53
2023-02-18T12:49:42.431Z,108.73
2023-02-18T12:52:51.509Z,99.50
2023-02-18T12:56:13.283Z,96.13
2023-02-18T12:59:09.390Z,94.60
2023-02-18T13:02:24.381Z,98.68
2023-02-18T13:05:32.480Z,100.87
2023-02-18T13:08:36.514Z,95.45
2023-02-18T13:11:47.212Z,88.93
2023-02-18T13:14:21.076Z,96.27
2023-02-18T13:16:56.254Z,102.00
2023-02-18T13:19:35.537Z,93.90
2023-02-18T13:22:09.338Z,90.53
2023-02-18T13:24:56.333Z,90.37
2023-02-18T13:27:49.727Z,86.97
2023-02-18T13:39:15.147Z,79.88
2023-02-18T13:41:43.180Z,82.80
2023-02-18T13:44:19.087Z,86.37
2023-02-18T13:46:56.630Z,81.97
2023-02-18T13:49:27.660Z,83.07
2023-02-18T13:51:56.420Z,77.13
2023-02-18T13:54:32.650Z,75.23
2023-02-18T13:57:03.225Z,80.68
2023-02-18T13:59:35.377Z,78.07
2023-02-18T14:02:32.300Z,74.20
2023-02-18T14:05:16.235Z,75.57
2023-02-18T14:07:55.881Z,76.10
2023-02-18T14:10:23.079Z,78.13
2023-02-18T14:12:52.007Z,77.77
2023-02-18T14:16:01.057Z,73.60
2023-02-18T14:18:56.749Z,77.13
2023-02-18T14:21:48.323Z,77.13
2023-02-18T14:24:16.864Z,76.13
2023-02-18T14:26:47.293Z,74.67
2023-02-18T14:29:28.016Z,75.47
2023-02-18T14:32:03.791Z,74.37
2023-02-18T14:34:41.219Z,77.03
2023-02-18T14:37:40.675Z,75.93
2023-02-18T14:40:24.593Z,74.57
2023-02-18T14:43:40.438Z,69.93
2023-02-18T14:46:41.737Z,73.17
2023-02-18T14:49:46.462Z,74.90
2023-02-18T14:52:31.683Z,67.57
2023-02-18T14:57:46.956Z,67.47
2023-02-18T15:00:30.426Z,68.63
2023-02-18T15:03:04.359Z,71.37
2023-02-18T15:05:46.369Z,72.70
2023-02-18T15:08:27.678Z,73.17
2023-02-18T15:11:18.615Z,82.43
2023-02-18T15:13:49.884Z,75.73
2023-02-18T15:16:30.850Z,73.43
2023-02-18T15:19:03.450Z,73.57
2023-02-18T15:21:40.354Z,82.43
2023-02-18T15:24:40.172Z,76.10
2023-02-18T15:27:25.616Z,72.87
2023-02-18T15:30:18.197Z,81.27
2023-02-18T15:35:49.787Z,81.20
2023-02-18T15:38:32.606Z,83.13
2023-02-18T15:41:10.769Z,83.30
2023-02-18T15:46:41.746Z,77.00
2023-02-18T15:49:33.084Z,80.43
2023-02-18T15:52:02.206Z,77.87
2023-02-18T15:57:30.603Z,71.72
2023-02-18T16:00:10.050Z,78.27
2023-02-18T16:02:53.293Z,75.67
2023-02-18T16:05:35.097Z,79.27
2023-02-18T16:08:09.671Z,83.63
2023-02-18T16:10:51.891Z,78.63
2023-02-18T16:13:26.873Z,83.27
2023-02-18T16:16:01.182Z,85.33
2023-02-18T16:18:43.545Z,80.50
2023-02-18T16:21:29.620Z,83.63
2023-02-18T16:24:09.364Z,83.53
2023-02-18T16:26:51.469Z,91.03
2023-02-18T16:29:44.239Z,94.13
2023-02-18T16:32:17.856Z,98.57
2023-02-18T16:34:49.606Z,93.50
2023-02-18T16:37:40.505Z,99.60
2023-02-18T16:40:51.029Z,99.10
2023-02-18T16:43:27.592Z,110.07
2023-02-18T16:46:01.588Z,122.55
2023-02-18T16:48:44.259Z,120.30
2023-02-18T16:51:29.348Z,117.63
2023-02-18T16:54:00.401Z,118.57
2023-02-18T16:56:31.162Z,124.47
2023-02-18T16:59:09.846Z,121.10
2023-02-18T17:01:48.179Z,120.85
2023-02-18T17:04:23.218Z,125.67
2023-02-18T17:06:57.517Z,121.83
2023-02-18T17:09:52.638Z,120.30
2023-02-18T17:12:43.547Z,130.67
2023-02-18T17:15:40.455Z,126.07
2023-02-18T17:18:14.521Z,129.68
2023-02-18T17:23:35.770Z,140.00
2023-02-18T17:26:11.072Z,128.23
2023-02-18T17:28:48.163Z,125.03
2023-02-18T17:31:30.949Z,125.50
2023-02-18T17:34:09.552Z,117.87
2023-02-18T17:36:44.335Z,122.53
2023-02-18T17:39:21.081Z,124.83
2023-02-18T17:41:57.545Z,121.72
2023-02-18T17:44:55.566Z,119.85
2023-02-18T17:47:30.297Z,119.93
2023-02-18T17:50:05.949Z,129.80
2023-02-18T17:52:37.740Z,119.90
2023-02-18T17:55:36.475Z,129.23
2023-02-18T17:58:06.159Z,119.57
2023-02-18T18:00:42.043Z,127.37
2023-02-18T18:03:11.874Z,130.03
2023-02-18T18:05:41.573Z,133.63
2023-02-18T18:08:09.758Z,132.27
2023-02-18T18:11:10.763Z,146.43
2023-02-18T18:13:46.367Z,153.27
2023-02-18T18:16:22.072Z,158.93
2023-02-18T18:18:50.070Z,151.43
2023-02-18T18:21:44.651Z,135.53
2023-02-18T18:24:20.391Z,136.10
2023-02-18T18:26:50.343Z,127.17
2023-02-18T18:29:22.696Z,119.77
2023-02-18T18:31:51.370Z,120.63
2023-02-18T18:34:20.288Z,124.10
2023-02-18T18:36:52.048Z,123.43
2023-02-18T18:39:29.336Z,123.43
2023-02-18T18:41:59.974Z,129.73
2023-02-18T18:44:29.488Z,123.13
2023-02-18T18:47:03.581Z,134.27
2023-02-18T18:49:33.439Z,129.70
2023-02-18T18:52:02.197Z,128.10
2023-02-18T18:54:36.258Z,127.63
2023-02-18T18:57:05.460Z,123.73
2023-02-18T18:59:34.363Z,121.03
2023-02-18T19:02:06.620Z,120.47
2023-02-18T19:04:37.403Z,127.43
2023-02-18T19:07:06.249Z,123.37
2023-02-18T19:09:35.003Z,121.57
2023-02-18T19:12:03.561Z,118.97
2023-02-18T19:14:33.009Z,136.63
2023-02-18T19:17:01.659Z,131.10
2023-02-18T19:19:31.323Z,127.30
2023-02-18T19:21:59.927Z,134.20
2023-02-18T19:24:31.381Z,137.53
2023-02-18T19:27:01.050Z,135.50
2023-02-18T19:29:30.081Z,130.87
2023-02-18T19:31:58.571Z,142.07
2023-02-18T19:34:27.989Z,133.93
2023-02-18T19:39:39.567Z,128.80
2023-02-18T19:42:07.571Z,137.77
2023-02-18T19:44:37.306Z,127.27
2023-02-18T19:47:05.575Z,135.90
2023-02-18T19:49:34.880Z,130.80
2023-02-18T19:52:08.900Z,135.97
2023-02-18T19:54:37.699Z,143.73
2023-02-18T19:57:07.477Z,137.70
2023-02-18T19:59:36.463Z,127.73
2023-02-18T20:02:05.461Z,142.43
2023-02-18T20:04:34.215Z,137.77
2023-02-18T20:07:03.538Z,147.07
2023-02-18T20:09:32.588Z,140.60
2023-02-18T20:12:00.565Z,128.30
2023-02-18T20:14:29.511Z,124.97
2023-02-18T20:16:58.058Z,122.07
2023-02-18T20:19:30.383Z,129.37
2023-02-18T20:22:00.216Z,123.77
2023-02-18T20:24:29.994Z,115.37
2023-02-18T20:27:02.380Z,127.50
2023-02-18T20:29:33.550Z,121.50
2023-02-18T20:32:02.048Z,120.57
2023-02-18T20:34:30.431Z,125.67
2023-02-18T20:36:58.784Z,121.20
2023-02-18T20:39:27.786Z,125.47
2023-02-18T20:41:57.914Z,124.47
2023-02-18T20:44:28.522Z,130.50
2023-02-18T20:46:57.535Z,125.47
2023-02-18T20:49:25.966Z,120.30
2023-02-18T20:51:54.291Z,126.67
2023-02-18T20:54:22.894Z,126.27
2023-02-18T20:56:51.912Z,126.90
2023-02-18T20:59:20.247Z,125.10
2023-02-18T21:01:51.604Z,128.07
2023-02-18T21:04:20.145Z,134.73
2023-02-18T21:06:47.825Z,135.57
2023-02-18T21:09:16.974Z,126.50
2023-02-18T21:11:45.827Z,138.43
2023-02-18T21:14:14.434Z,144.57
2023-02-18T21:16:42.908Z,135.10
2023-02-18T21:19:13.816Z,139.33
2023-02-18T21:21:42.846Z,146.17
2023-02-18T21:24:11.713Z,143.47
2023-02-18T21:26:40.294Z,144.33
2023-02-18T21:29:08.707Z,140.97
2023-02-18T21:31:38.430Z,147.53
2023-02-18T21:34:07.631Z,145.93
2023-02-18T21:36:36.100Z,148.90
2023-02-18T21:39:05.725Z,147.07
2023-02-18T21:41:35.145Z,157.73
2023-02-18T21:44:02.950Z,150.97
2023-02-18T21:46:31.813Z,164.43
2023-02-18T21:49:03.207Z,166.73
2023-02-18T21:51:50.296Z,155.30
2023-02-18T21:54:19.758Z,129.50
2023-02-18T21:56:48.729Z,134.07
2023-02-18T21:59:17.191Z,134.40
2023-02-18T22:01:46.020Z,150.00
2023-02-18T22:04:14.916Z,138.27
2023-02-18T22:06:44.394Z,147.30
2023-02-18T22:09:12.572Z,137.00
2023-02-18T22:11:42.156Z,141.93
2023-02-18T22:14:31.516Z,137.27
2023-02-18T22:17:00.202Z,128.27
2023-02-18T22:19:29.709Z,132.93
2023-02-18T22:21:58.853Z,127.33
2023-02-18T22:24:27.636Z,144.83
2023-02-18T22:26:57.298Z,143.93
2023-02-18T22:29:25.735Z,139.30
2023-02-18T22:31:54.411Z,133.67
2023-02-18T22:34:24.204Z,141.60
2023-02-18T22:36:53.320Z,135.97
2023-02-18T22:39:21.697Z,137.37
2023-02-18T22:41:50.724Z,126.23
2023-02-18T22:44:19.324Z,122.67
2023-02-18T22:46:47.650Z,128.63
2023-02-18T22:49:16.284Z,131.60
2023-02-18T22:51:45.850Z,127.57
2023-02-18T22:54:21.503Z,130.17
2023-02-18T22:56:50.151Z,135.27
2023-02-18T22:59:22.236Z,128.37
2023-02-18T23:01:50.628Z,141.07
2023-02-18T23:04:19.121Z,134.23
2023-02-18T23:06:48.244Z,151.93
2023-02-18T23:09:24.778Z,144.20
2023-02-18T23:11:54.487Z,145.77
2023-02-18T23:14:22.684Z,145.83
2023-02-18T23:17:11.075Z,138.27
2023-02-18T23:19:38.775Z,134.23
2023-02-18T23:22:06.869Z,139.70
2023-02-18T23:24:44.988Z,136.53
2023-02-18T23:27:14.805Z,135.93
2023-02-18T23:29:43.331Z,133.50
2023-02-18T23:32:12.235Z,141.20
2023-02-18T23:34:40.938Z,151.30
2023-02-18T23:37:11.741Z,147.57
2023-02-18T23:39:40.527Z,152.43
2023-02-18T23:42:09.976Z,136.37
2023-02-18T23:44:38.864Z,137.00
2023-02-18T23:47:08.634Z,144.40
2023-02-18T23:49:37.300Z,142.17
2023-02-18T23:52:08.412Z,141.77
2023-02-18T23:54:37.623Z,135.33
2023-02-18T23:57:06.588Z,137.77
2023-02-18T23:59:34.909Z,126.37
